TimePDT,TemperatureF,Dew PointF,Humidity,Sea Level PressureIn,VisibilityMPH,Wind Direction,Wind SpeedMPH,Gust SpeedMPH,PrecipitationIn,Events,Conditions,WindDirDegrees,DateUTC
12:53 AM,54.0,48.0,80,29.99,10.0,Calm,Calm,-,N/A,,Clear,0,2013-09-19 07:53:00
1:53 AM,53.1,48.0,83,29.99,10.0,Calm,Calm,-,N/A,,Clear,0,2013-09-19 08:53:00
2:53 AM,52.0,46.9,83,29.98,10.0,Calm,Calm,-,N/A,,Clear,0,2013-09-19 09:53:00
3:53 AM,50.0,46.9,89,29.97,10.0,Calm,Calm,-,N/A,,Clear,0,2013-09-19 10:53:00
4:53 AM,50.0,46.0,86,29.96,10.0,Calm,Calm,-,N/A,,Clear,0,2013-09-19 11:53:00
5:53 AM,48.9,46.0,90,29.95,10.0,Calm,Calm,-,N/A,,Clear,0,2013-09-19 12:53:00
6:53 AM,48.0,46.0,93,29.95,10.0,Calm,Calm,-,N/A,,Clear,0,2013-09-19 13:53:00
7:53 AM,48.9,46.9,93,29.96,10.0,Calm,Calm,-,N/A,,Clear,0,2013-09-19 14:53:00
8:53 AM,53.1,48.0,83,29.95,10.0,Calm,Calm,-,N/A,,Clear,0,2013-09-19 15:53:00
9:53 AM,57.0,48.9,74,29.94,10.0,Calm,Calm,-,N/A,,Clear,0,2013-09-19 16:53:00
10:53 AM,62.1,48.9,62,29.93,10.0,Calm,Calm,-,N/A,,Clear,0,2013-09-19 17:53:00
11:53 AM,69.1,48.9,49,29.91,10.0,Calm,Calm,-,N/A,,Clear,0,2013-09-19 18:53:00
12:53 PM,75.0,46.0,36,29.88,10.0,Calm,Calm,-,N/A,,Clear,0,2013-09-19 19:53:00
1:53 PM,78.1,44.1,30,29.85,10.0,East,4.6,-,N/A,,Clear,90,2013-09-19 20:53:00
2:53 PM,80.1,45.0,29,29.83,10.0,WSW,4.6,-,N/A,,Clear,240,2013-09-19 21:53:00
3:53 PM,81.0,46.9,30,29.81,10.0,Variable,3.5,-,N/A,,Clear,0,2013-09-19 22:53:00
4:53 PM,82.9,46.9,28,29.78,10.0,West,3.5,-,N/A,,Clear,280,2013-09-19 23:53:00
5:53 PM,82.0,44.1,26,29.78,10.0,NW,8.1,-,N/A,,Clear,320,2013-09-20 00:53:00
6:53 PM,77.0,48.0,36,29.78,10.0,NW,5.8,-,N/A,,Clear,310,2013-09-20 01:53:00
7:53 PM,73.9,50.0,43,29.80,10.0,North,3.5,-,N/A,,Clear,350,2013-09-20 02:53:00
8:53 PM,71.1,48.0,44,29.82,10.0,Calm,Calm,-,N/A,,Clear,0,2013-09-20 03:53:00
9:53 PM,66.0,48.9,54,29.82,10.0,Calm,Calm,-,N/A,,Clear,0,2013-09-20 04:53:00
10:53 PM,63.0,48.9,60,29.81,10.0,Calm,Calm,-,N/A,,Clear,0,2013-09-20 05:53:00
11:53 PM,60.1,48.9,67,29.80,10.0,Calm,Calm,-,N/A,,Clear,0,2013-09-20 06:53:00